Time;durP1;ratioP1;P1;durP2;ratioP2;P2;SDS_P1;SDS_P2;PMS_P1;PMS_P2;Temp;Humidity;BMP_temperature;BMP_pressure;BME280_temperature;BME280_humidity;BME280_pressure;Samples;Min_cycle;Max_cycle;Signal;HPM_P1;HPM_P2
2021/08/09 00:01:48;;;;;;;6.00;1.70;;;25.10;67.60;;;;;;5027107;28;20471;-66
2021/08/09 00:04:13;;;;;;;4.28;1.77;;;25.20;68.40;;;;;;5023676;28;20095;-65
2021/08/09 00:06:39;;;;;;;4.32;1.52;;;25.00;69.30;;;;;;5017977;28;20096;-65
2021/08/09 00:09:06;;;;;;;3.78;1.85;;;25.00;69.20;;;;;;5012005;28;20045;-66
2021/08/09 00:11:32;;;;;;;3.53;1.77;;;25.10;69.10;;;;;;5015328;28;20038;-66
2021/08/09 00:13:58;;;;;;;3.92;1.65;;;25.10;69.50;;;;;;5010004;28;20509;-66
2021/08/09 00:16:24;;;;;;;7.25;1.80;;;25.10;69.80;;;;;;5026165;28;20046;-66
2021/08/09 00:18:49;;;;;;;4.60;1.67;;;25.00;69.70;;;;;;5018876;28;20322;-66
2021/08/09 00:21:17;;;;;;;6.07;1.95;;;25.00;70.10;;;;;;5027356;28;20034;-66
2021/08/09 00:23:43;;;;;;;4.65;2.05;;;25.00;70.50;;;;;;5017710;28;20038;-65
2021/08/09 00:26:08;;;;;;;2.47;1.92;;;24.90;71.00;;;;;;5007011;28;20100;-65
2021/08/09 00:28:34;;;;;;;6.15;1.77;;;24.80;71.40;;;;;;5009509;28;20115;-65
2021/08/09 00:31:00;;;;;;;3.97;1.98;;;24.80;71.90;;;;;;4988879;28;20037;-66
2021/08/09 00:33:25;;;;;;;5.03;2.10;;;24.70;73.10;;;;;;5009274;28;20034;-66
2021/08/09 00:35:51;;;;;;;6.97;2.25;;;24.80;72.60;;;;;;5003742;28;20091;-65
2021/08/09 00:38:16;;;;;;;5.60;1.60;;;24.80;72.70;;;;;;5022344;28;20045;-65
2021/08/09 00:40:42;;;;;;;5.05;1.70;;;24.80;73.00;;;;;;5018917;28;20037;-65
2021/08/09 00:43:08;;;;;;;5.40;1.83;;;24.80;73.70;;;;;;5026708;28;20034;-65
2021/08/09 00:45:34;;;;;;;4.65;1.88;;;24.90;74.10;;;;;;5022812;28;20056;-64
2021/08/09 00:47:59;;;;;;;5.07;1.90;;;24.70;74.70;;;;;;5025657;28;20060;-65
2021/08/09 00:50:25;;;;;;;5.68;1.42;;;24.70;74.70;;;;;;5020683;28;20053;-66
2021/08/09 00:52:51;;;;;;;5.40;1.85;;;24.80;75.20;;;;;;5019064;28;20392;-65
2021/08/09 00:55:17;;;;;;;9.98;2.28;;;24.70;76.70;;;;;;5027790;28;20049;-65
2021/08/09 00:57:43;;;;;;;4.70;1.67;;;24.60;76.00;;;;;;5019866;28;20041;-66
2021/08/09 01:00:10;;;;;;;6.28;2.10;;;24.70;76.90;;;;;;5020965;28;20029;-65
2021/08/09 01:02:35;;;;;;;6.40;2.60;;;24.70;76.60;;;;;;5006317;28;20045;-65
2021/08/09 01:05:03;;;;;;;5.47;2.20;;;24.60;77.00;;;;;;5009735;28;20034;-66
2021/08/09 01:07:35;;;;;;;2.33;1.73;;;24.80;76.70;;;;;;5005355;28;20045;-66
2021/08/09 01:10:34;;;;;;;5.78;1.73;;;24.70;77.10;;;;;;5018267;28;20045;-66
2021/08/09 01:13:06;;;;;;;4.03;2.15;;;24.60;79.40;;;;;;4924963;28;20044;-65
2021/08/09 01:15:37;;;;;;;5.57;2.25;;;24.60;78.30;;;;;;5028185;28;20486;-65
2021/08/09 01:18:05;;;;;;;3.88;2.55;;;24.60;79.10;;;;;;4997021;28;20081;-59
2021/08/09 01:21:06;;;;;;;5.40;1.75;;;24.60;78.90;;;;;;5027516;28;20472;-65
2021/08/09 01:23:40;;;;;;;5.22;1.75;;;24.60;78.90;;;;;;4980819;28;20476;-65
2021/08/09 01:26:27;;;;;;;4.57;1.70;;;24.60;79.80;;;;;;5018515;28;20039;-65
2021/08/09 01:28:58;;;;;;;6.63;1.98;;;24.50;79.20;;;;;;5019734;28;20049;-65
2021/08/09 01:31:33;;;;;;;3.58;1.60;;;24.50;80.50;;;;;;5028221;28;20735;-66
2021/08/09 01:34:23;;;;;;;6.13;1.95;;;24.60;80.30;;;;;;5010069;28;20080;-65
2021/08/09 01:36:53;;;;;;;8.63;1.98;;;24.50;80.50;;;;;;4995948;28;20050;-65
2021/08/09 01:39:19;;;;;;;9.07;1.75;;;24.50;79.40;;;;;;5011355;28;20033;-66
2021/08/09 01:41:47;;;;;;;5.05;1.63;;;24.50;78.90;;;;;;5011976;28;20076;-65
2021/08/09 01:44:15;;;;;;;4.03;1.90;;;24.50;79.30;;;;;;5024742;28;20025;-65
2021/08/09 01:46:41;;;;;;;2.97;1.27;;;24.50;80.00;;;;;;5028656;28;20034;-65
2021/08/09 01:49:07;;;;;;;4.15;2.10;;;24.50;80.30;;;;;;5024775;28;20045;-65
2021/08/09 01:51:34;;;;;;;4.03;1.60;;;24.50;79.80;;;;;;5022632;28;20041;-65
2021/08/09 01:54:01;;;;;;;7.28;2.25;;;24.50;80.20;;;;;;5018213;28;20048;-65
2021/08/09 01:56:28;;;;;;;5.63;1.80;;;24.50;80.90;;;;;;5019523;28;20061;-65
2021/08/09 01:58:53;;;;;;;3.67;1.52;;;24.30;82.90;;;;;;5000077;28;20133;-65
2021/08/09 02:01:19;;;;;;;5.40;1.60;;;24.40;81.70;;;;;;5012456;28;20117;-65
2021/08/09 02:04:20;;;;;;;4.38;1.75;;;24.40;81.50;;;;;;5015766;28;20547;-65
2021/08/09 02:06:45;;;;;;;6.03;1.98;;;24.30;83.20;;;;;;4978670;28;20470;-65
2021/08/09 02:09:11;;;;;;;7.40;2.20;;;24.20;82.20;;;;;;5026974;28;20129;-65
2021/08/09 02:11:44;;;;;;;4.43;1.70;;;24.30;82.00;;;;;;5028569;28;20038;-65
2021/08/09 02:14:13;;;;;;;5.53;2.23;;;24.10;83.20;;;;;;5015668;28;20133;-64
2021/08/09 02:16:56;;;;;;;4.15;1.60;;;24.20;83.40;;;;;;5014901;28;20265;-64
2021/08/09 02:19:33;;;;;;;4.13;1.83;;;24.30;83.30;;;;;;5023500;28;20040;-66
2021/08/09 02:21:58;;;;;;;5.40;1.75;;;24.20;84.40;;;;;;5027929;28;20044;-66
2021/08/09 02:24:31;;;;;;;6.78;1.80;;;24.20;83.30;;;;;;5022138;28;20049;-66
2021/08/09 02:33:41;;;;;;;4.35;1.65;;;24.10;85.90;;;;;;4962612;28;20499;-64
2021/08/09 02:36:07;;;;;;;3.28;1.80;;;24.10;84.00;;;;;;5020225;28;20084;-65
2021/08/09 02:38:34;;;;;;;2.88;1.88;;;24.00;84.40;;;;;;5019786;28;20050;-66
2021/08/09 02:41:01;;;;;;;6.68;2.03;;;24.10;84.50;;;;;;5020508;28;20041;-66
2021/08/09 02:43:27;;;;;;;3.25;1.33;;;24.10;85.40;;;;;;5011035;28;20041;-66
2021/08/09 02:45:55;;;;;;;4.10;1.67;;;24.00;84.70;;;;;;5025948;28;20419;-66
2021/08/09 02:48:22;;;;;;;5.82;2.15;;;24.10;85.60;;;;;;5020577;28;20050;-66
2021/08/09 02:50:48;;;;;;;4.40;1.48;;;24.10;86.30;;;;;;5021936;28;20125;-66
2021/08/09 02:53:19;;;;;;;5.53;1.60;;;24.10;85.40;;;;;;5027375;28;20116;-66
2021/08/09 02:55:50;;;;;;;8.02;1.92;;;24.00;86.80;;;;;;5020876;28;20041;-65
2021/08/09 02:58:16;;;;;;;5.20;2.08;;;24.00;86.80;;;;;;5027939;28;20046;-66
2021/08/09 03:00:43;;;;;;;4.93;1.70;;;24.00;86.50;;;;;;5024058;28;20045;-66
2021/08/09 03:03:10;;;;;;;7.32;1.90;;;24.10;86.10;;;;;;5029618;28;20478;-64
2021/08/09 03:05:36;;;;;;;6.72;2.13;;;24.10;86.50;;;;;;5025972;28;20197;-65
2021/08/09 03:08:02;;;;;;;4.07;2.03;;;24.10;86.60;;;;;;5028326;28;20125;-66
2021/08/09 03:10:28;;;;;;;3.63;1.63;;;24.10;86.80;;;;;;5021537;28;20593;-65
2021/08/09 03:12:58;;;;;;;5.60;1.67;;;24.10;86.40;;;;;;5024185;28;20123;-65
2021/08/09 03:15:24;;;;;;;4.28;1.65;;;24.10;86.50;;;;;;5028779;28;20124;-66
2021/08/09 03:17:50;;;;;;;4.32;1.55;;;24.00;87.40;;;;;;5016438;28;20046;-65
2021/08/09 03:20:16;;;;;;;7.20;2.00;;;23.90;87.10;;;;;;5015394;28;20049;-65
2021/08/09 03:22:41;;;;;;;6.43;2.08;;;24.00;87.50;;;;;;5010638;28;20045;-66
2021/08/09 03:25:07;;;;;;;6.07;1.67;;;24.00;87.40;;;;;;5028287;28;20064;-65
2021/08/09 03:27:33;;;;;;;6.70;2.00;;;24.00;88.00;;;;;;5025023;28;20467;-66
2021/08/09 03:29:59;;;;;;;5.28;1.80;;;24.00;87.90;;;;;;5026193;28;20045;-65
2021/08/09 03:32:25;;;;;;;5.10;1.50;;;24.00;88.20;;;;;;5023381;28;20124;-65
2021/08/09 03:34:51;;;;;;;4.20;1.98;;;24.00;87.90;;;;;;5012597;28;20038;-66
2021/08/09 03:37:16;;;;;;;7.72;2.13;;;24.00;88.10;;;;;;5004985;28;20120;-65
2021/08/09 03:39:42;;;;;;;6.72;2.15;;;23.90;88.40;;;;;;5012553;28;20120;-65
2021/08/09 03:42:09;;;;;;;7.80;2.22;;;23.90;87.90;;;;;;5022867;28;20043;-65
2021/08/09 03:44:35;;;;;;;5.50;1.75;;;24.00;88.30;;;;;;5027326;28;20468;-65
2021/08/09 03:47:00;;;;;;;4.93;2.03;;;23.90;88.30;;;;;;5034203;28;20119;-65
2021/08/09 03:49:26;;;;;;;6.95;2.95;;;23.90;88.60;;;;;;5018752;28;20049;-66
2021/08/09 03:51:51;;;;;;;5.63;2.10;;;23.80;88.70;;;;;;5024970;28;20166;-65
2021/08/09 03:54:17;;;;;;;5.68;1.50;;;23.80;88.80;;;;;;5021180;28;20041;-66
2021/08/09 03:56:43;;;;;;;3.58;1.95;;;23.80;89.10;;;;;;5026360;28;20483;-66
2021/08/09 03:59:08;;;;;;;4.50;1.85;;;23.80;89.40;;;;;;5013903;28;20424;-66
2021/08/09 04:01:38;;;;;;;6.07;1.95;;;23.80;88.80;;;;;;5027647;28;20037;-65
2021/08/09 04:04:05;;;;;;;4.70;1.90;;;23.80;89.50;;;;;;5022831;28;20037;-65
2021/08/09 04:06:31;;;;;;;3.92;1.85;;;23.80;89.40;;;;;;5027315;28;20047;-66
2021/08/09 04:08:56;;;;;;;5.72;2.13;;;23.80;89.50;;;;;;5022947;28;20127;-66
2021/08/09 04:11:22;;;;;;;6.72;2.08;;;23.80;89.30;;;;;;5014949;28;20483;-66
2021/08/09 04:13:47;;;;;;;4.90;2.00;;;23.80;89.20;;;;;;5022447;28;20049;-66
2021/08/09 04:16:13;;;;;;;3.60;1.73;;;23.70;89.20;;;;;;5010029;28;20041;-65
2021/08/09 04:18:39;;;;;;;8.00;2.25;;;23.70;89.60;;;;;;5022916;28;20048;-66
2021/08/09 04:21:05;;;;;;;4.10;1.90;;;23.70;89.90;;;;;;5024887;28;20072;-64
2021/08/09 04:23:31;;;;;;;3.88;2.00;;;23.70;89.90;;;;;;5020565;28;20044;-66
2021/08/09 04:25:57;;;;;;;5.22;2.05;;;23.70;90.00;;;;;;5024952;28;20045;-66
2021/08/09 04:28:22;;;;;;;4.90;1.52;;;23.70;90.20;;;;;;5025691;28;20566;-66
2021/08/09 04:30:48;;;;;;;3.65;1.48;;;23.60;89.90;;;;;;5027428;28;20052;-65
2021/08/09 04:33:13;;;;;;;4.35;1.90;;;23.70;89.90;;;;;;5027577;28;20037;-66
2021/08/09 04:35:39;;;;;;;4.82;2.15;;;23.70;90.00;;;;;;5019205;28;20060;-65
2021/08/09 04:38:05;;;;;;;6.43;2.13;;;23.70;90.20;;;;;;5028286;28;20033;-65
2021/08/09 04:40:31;;;;;;;7.55;1.90;;;23.60;90.10;;;;;;5012560;28;20037;-66
2021/08/09 04:42:57;;;;;;;6.47;1.95;;;23.70;90.10;;;;;;5026852;28;20087;-66
2021/08/09 04:45:24;;;;;;;7.97;2.65;;;23.70;90.00;;;;;;5010383;28;20120;-66
2021/08/09 04:47:50;;;;;;;6.25;1.88;;;23.70;90.40;;;;;;5011490;28;20034;-66
2021/08/09 04:50:16;;;;;;;5.85;1.85;;;23.70;90.20;;;;;;5020005;28;20107;-66
2021/08/09 04:52:42;;;;;;;6.07;1.85;;;23.70;90.30;;;;;;5027690;28;20457;-65
2021/08/09 04:55:13;;;;;;;5.43;1.58;;;23.70;90.20;;;;;;5020070;28;20848;-65
2021/08/09 04:57:38;;;;;;;7.90;2.00;;;23.60;90.40;;;;;;5025461;28;20033;-65
2021/08/09 05:00:05;;;;;;;6.45;1.50;;;23.70;90.40;;;;;;5012230;28;20130;-66
2021/08/09 05:02:31;;;;;;;7.18;2.08;;;23.70;90.50;;;;;;5023324;28;20029;-66
2021/08/09 05:04:58;;;;;;;9.10;1.70;;;23.70;90.60;;;;;;5024337;28;20029;-65
2021/08/09 05:07:24;;;;;;;6.72;1.58;;;23.70;90.50;;;;;;5021539;28;20076;-65
2021/08/09 05:09:49;;;;;;;5.47;1.77;;;23.70;90.60;;;;;;5023475;28;20087;-66
2021/08/09 05:12:15;;;;;;;5.72;1.33;;;23.70;90.80;;;;;;5026091;28;20034;-65
2021/08/09 05:14:40;;;;;;;6.93;2.03;;;23.70;90.70;;;;;;5023149;28;20056;-65
2021/08/09 05:17:06;;;;;;;6.32;1.90;;;23.70;90.70;;;;;;5006890;28;20356;-65
2021/08/09 05:19:33;;;;;;;4.25;1.85;;;23.80;90.70;;;;;;5008614;28;20080;-66
2021/08/09 05:21:58;;;;;;;4.57;1.52;;;23.70;90.70;;;;;;5007313;28;20398;-65
2021/08/09 05:24:24;;;;;;;4.40;1.48;;;23.70;90.60;;;;;;5011638;28;20044;-65
2021/08/09 05:26:50;;;;;;;3.78;1.60;;;23.70;90.80;;;;;;5017505;28;20533;-66
2021/08/09 05:29:15;;;;;;;6.85;1.80;;;23.80;90.90;;;;;;5026926;28;20045;-65
2021/08/09 05:31:41;;;;;;;7.57;2.13;;;23.70;91.10;;;;;;5011604;28;20045;-66
2021/08/09 05:34:07;;;;;;;4.95;2.30;;;23.70;91.00;;;;;;5012044;28;20111;-65
2021/08/09 05:36:35;;;;;;;5.45;1.65;;;23.70;91.00;;;;;;5003765;28;20432;-66
2021/08/09 05:39:01;;;;;;;7.15;1.63;;;23.80;91.00;;;;;;5022788;28;20041;-66
2021/08/09 05:41:27;;;;;;;8.95;2.67;;;23.80;91.10;;;;;;5030456;28;20121;-65
2021/08/09 05:43:53;;;;;;;5.57;1.95;;;23.80;91.10;;;;;;5026476;28;20046;-66
2021/08/09 05:46:18;;;;;;;5.30;2.00;;;23.80;91.10;;;;;;5029547;28;20491;-66
2021/08/09 05:48:44;;;;;;;5.00;1.42;;;23.80;91.10;;;;;;5022679;28;20042;-65
2021/08/09 05:51:09;;;;;;;3.45;1.48;;;23.80;91.30;;;;;;5030472;28;20088;-64
2021/08/09 05:53:35;;;;;;;3.78;1.88;;;23.80;91.10;;;;;;5023698;28;20045;-65
2021/08/09 05:56:00;;;;;;;4.85;1.65;;;23.90;91.00;;;;;;5009935;28;20047;-66
2021/08/09 05:58:26;;;;;;;6.03;2.80;;;23.80;91.00;;;;;;5022090;28;20336;-66
2021/08/09 06:00:52;;;;;;;4.93;1.70;;;23.90;91.10;;;;;;5019416;28;20117;-66
2021/08/09 06:03:21;;;;;;;8.05;1.73;;;23.90;90.80;;;;;;5025338;28;20557;-66
2021/08/09 06:05:46;;;;;;;6.88;1.83;;;23.90;90.80;;;;;;5030229;28;20034;-66
2021/08/09 06:08:12;;;;;;;6.38;2.05;;;23.90;90.50;;;;;;5024755;28;20044;-66
2021/08/09 06:10:38;;;;;;;6.40;1.48;;;24.00;90.90;;;;;;5029482;28;20363;-65
2021/08/09 06:13:03;;;;;;;9.73;2.47;;;24.00;91.20;;;;;;5024393;28;20178;-66
2021/08/09 06:15:29;;;;;;;8.10;1.88;;;23.90;91.30;;;;;;5024548;28;20040;-65
2021/08/09 06:17:55;;;;;;;5.03;2.25;;;24.00;91.20;;;;;;5029053;28;20136;-65
2021/08/09 06:20:20;;;;;;;5.30;2.00;;;24.00;91.30;;;;;;5022249;28;20037;-66
2021/08/09 06:22:46;;;;;;;4.93;1.60;;;24.00;91.00;;;;;;5027276;28;20057;-66
2021/08/09 06:25:11;;;;;;;3.92;2.20;;;24.00;90.80;;;;;;5026063;28;20065;-65
2021/08/09 06:27:37;;;;;;;4.53;2.03;;;24.00;91.00;;;;;;5033385;28;20025;-65
2021/08/09 06:30:03;;;;;;;10.07;2.50;;;24.00;91.30;;;;;;5024081;28;20045;-66
2021/08/09 06:32:29;;;;;;;6.93;2.25;;;24.00;91.10;;;;;;5016050;28;20084;-65
2021/08/09 06:34:54;;;;;;;6.90;2.00;;;24.10;91.30;;;;;;5006110;28;20045;-65
2021/08/09 06:37:20;;;;;;;4.15;1.60;;;24.10;91.40;;;;;;5032921;28;20108;-66
2021/08/09 06:39:45;;;;;;;5.82;1.92;;;24.10;91.40;;;;;;5020146;28;20034;-65
2021/08/09 06:42:11;;;;;;;7.35;2.20;;;24.20;91.40;;;;;;5020688;28;20041;-66
2021/08/09 06:44:37;;;;;;;5.38;2.03;;;24.10;91.50;;;;;;5007858;28;20070;-65
2021/08/09 06:47:03;;;;;;;6.30;2.22;;;24.10;91.40;;;;;;5026541;28;20043;-66
2021/08/09 06:49:28;;;;;;;6.18;1.77;;;24.20;91.20;;;;;;5023956;28;21207;-65
2021/08/09 06:51:54;;;;;;;4.72;2.00;;;24.20;91.80;;;;;;5017432;28;20081;-65
2021/08/09 06:54:23;;;;;;;6.93;2.20;;;24.30;91.60;;;;;;5007159;28;20054;-66
2021/08/09 06:56:49;;;;;;;8.18;2.30;;;24.20;91.40;;;;;;5006763;28;20042;-66
2021/08/09 06:59:14;;;;;;;6.63;1.80;;;24.20;91.60;;;;;;5015013;28;20029;-66
2021/08/09 07:01:40;;;;;;;5.60;1.52;;;24.30;91.50;;;;;;5022669;28;20548;-65
2021/08/09 07:04:05;;;;;;;7.72;2.33;;;24.30;91.70;;;;;;5028078;28;20510;-65
2021/08/09 07:06:31;;;;;;;7.10;2.22;;;24.30;91.50;;;;;;5021686;28;20040;-66
2021/08/09 07:08:57;;;;;;;7.47;2.50;;;24.40;91.70;;;;;;5021244;28;20042;-66
2021/08/09 07:11:22;;;;;;;6.32;2.20;;;24.40;91.30;;;;;;5010286;28;20045;-66
2021/08/09 07:13:51;;;;;;;8.77;2.58;;;24.40;92.00;;;;;;5010191;28;20072;-66
2021/08/09 07:16:16;;;;;;;6.15;2.08;;;24.40;91.90;;;;;;5023540;28;20119;-65
2021/08/09 07:18:42;;;;;;;3.65;2.30;;;24.50;91.80;;;;;;5029177;28;20076;-66
2021/08/09 07:21:11;;;;;;;7.47;2.47;;;24.50;91.40;;;;;;5023117;28;20029;-66
2021/08/09 07:23:36;;;;;;;3.97;1.95;;;24.50;92.00;;;;;;5009649;28;20081;-65
2021/08/09 07:26:02;;;;;;;6.18;1.98;;;24.50;91.80;;;;;;5008527;28;20069;-66
2021/08/09 07:28:28;;;;;;;4.72;2.30;;;24.60;92.40;;;;;;5009352;28;20049;-66
2021/08/09 07:30:53;;;;;;;8.23;2.55;;;24.70;92.30;;;;;;5001445;28;20033;-67
2021/08/09 07:33:19;;;;;;;5.68;2.35;;;24.80;92.20;;;;;;5014906;28;20041;-66
2021/08/09 07:35:44;;;;;;;8.05;2.50;;;24.80;91.80;;;;;;5027262;28;20026;-66
2021/08/09 07:38:11;;;;;;;4.10;2.20;;;24.80;91.70;;;;;;5010949;28;20049;-66
2021/08/09 07:40:36;;;;;;;5.57;2.28;;;24.80;91.60;;;;;;5026510;28;20037;-66
2021/08/09 07:43:02;;;;;;;7.03;2.67;;;24.80;91.30;;;;;;5009648;28;20034;-67
2021/08/09 07:45:28;;;;;;;4.97;2.30;;;24.90;91.20;;;;;;5029411;28;20061;-66
2021/08/09 07:47:55;;;;;;;4.50;2.00;;;24.90;91.10;;;;;;5019225;28;20049;-66
2021/08/09 07:50:21;;;;;;;8.10;2.58;;;25.00;90.40;;;;;;5006376;28;20414;-66
2021/08/09 07:52:47;;;;;;;6.90;2.75;;;25.00;89.00;;;;;;4995227;28;20042;-65
2021/08/09 07:55:13;;;;;;;8.05;2.50;;;25.10;88.50;;;;;;5011811;28;20373;-65
2021/08/09 07:57:38;;;;;;;5.80;2.03;;;25.20;88.90;;;;;;5016454;28;20041;-66
2021/08/09 08:00:05;;;;;;;4.90;2.35;;;25.10;85.90;;;;;;5027192;28;20510;-66
2021/08/09 08:02:31;;;;;;;6.53;2.00;;;25.20;85.60;;;;;;5019927;28;20050;-66
2021/08/09 08:04:56;;;;;;;7.03;2.03;;;25.30;86.00;;;;;;5027079;28;20160;-66
2021/08/09 08:07:22;;;;;;;5.85;2.30;;;25.20;84.40;;;;;;5022960;28;20605;-66
2021/08/09 08:09:51;;;;;;;7.10;1.95;;;25.30;83.30;;;;;;5027964;28;20077;-66
2021/08/09 08:12:17;;;;;;;6.13;2.25;;;25.30;83.00;;;;;;5018060;28;20484;-66
2021/08/09 08:14:42;;;;;;;7.03;1.90;;;25.40;80.80;;;;;;5007648;28;20034;-66
2021/08/09 08:17:08;;;;;;;4.32;1.52;;;25.40;81.00;;;;;;5022614;28;20106;-65
2021/08/09 08:19:34;;;;;;;4.90;2.47;;;25.50;80.20;;;;;;5015290;28;20052;-65
2021/08/09 08:21:59;;;;;;;8.98;1.88;;;25.60;79.50;;;;;;5007072;28;20047;-66
2021/08/09 08:24:27;;;;;;;5.05;2.03;;;25.60;79.40;;;;;;5014898;28;20046;-66
2021/08/09 08:26:53;;;;;;;7.07;2.22;;;25.70;75.30;;;;;;5006927;28;20037;-66
2021/08/09 08:29:19;;;;;;;4.75;2.13;;;25.60;77.80;;;;;;5001725;28;20485;-66
2021/08/09 08:31:45;;;;;;;4.53;2.15;;;25.70;77.10;;;;;;5015474;28;20036;-66
2021/08/09 08:34:11;;;;;;;4.97;1.83;;;25.80;73.10;;;;;;5019574;28;20091;-65
2021/08/09 08:36:37;;;;;;;4.75;1.95;;;25.80;74.90;;;;;;5025271;28;20046;-66
2021/08/09 08:39:03;;;;;;;8.82;2.40;;;25.80;75.80;;;;;;5022893;28;20394;-66
2021/08/09 08:41:30;;;;;;;3.40;1.90;;;25.90;74.90;;;;;;5004244;28;20038;-66
2021/08/09 08:43:56;;;;;;;7.07;2.13;;;25.90;74.40;;;;;;5003629;28;20050;-67
2021/08/09 08:46:23;;;;;;;5.78;1.63;;;25.90;75.80;;;;;;5011078;28;20092;-66
2021/08/09 08:48:51;;;;;;;6.65;2.38;;;26.00;74.80;;;;;;5003412;28;20041;-66
2021/08/09 08:51:19;;;;;;;5.75;2.33;;;26.10;73.80;;;;;;5023748;28;20086;-66
2021/08/09 08:53:45;;;;;;;6.35;2.25;;;26.20;75.20;;;;;;5021523;28;20045;-65
2021/08/09 08:56:11;;;;;;;4.40;2.03;;;26.30;74.60;;;;;;5006005;28;20429;-66
2021/08/09 08:58:36;;;;;;;4.47;1.90;;;26.20;73.90;;;;;;5012917;28;20030;-65
2021/08/09 09:01:02;;;;;;;6.88;2.72;;;26.30;73.40;;;;;;4994992;28;20484;-66
2021/08/09 09:03:28;;;;;;;9.38;3.10;;;26.40;72.40;;;;;;5014751;28;20060;-66
2021/08/09 09:06:01;;;;;;;4.53;2.08;;;26.20;73.30;;;;;;5007841;28;20029;-66
2021/08/09 09:08:38;;;;;;;8.98;2.38;;;26.40;73.50;;;;;;5016916;28;20041;-66
2021/08/09 09:11:05;;;;;;;6.38;2.30;;;26.40;72.70;;;;;;5016625;28;20060;-66
2021/08/09 09:13:31;;;;;;;3.83;2.00;;;26.40;72.50;;;;;;5012068;28;20117;-66
2021/08/09 09:16:01;;;;;;;6.63;2.47;;;26.50;71.70;;;;;;5003088;28;20120;-66
2021/08/09 09:18:56;;;;;;;5.63;1.98;;;26.50;72.40;;;;;;5023268;28;20479;-66
2021/08/09 09:21:27;;;;;;;8.82;3.15;;;26.60;73.50;;;;;;4984077;28;20107;-66
2021/08/09 09:23:55;;;;;;;6.85;2.47;;;26.60;74.60;;;;;;5026865;28;20038;-66
2021/08/09 09:26:23;;;;;;;6.82;3.00;;;26.60;75.20;;;;;;5003387;28;20049;-66
2021/08/09 09:28:50;;;;;;;9.50;2.38;;;26.60;74.60;;;;;;5029031;28;20053;-66
2021/08/09 09:31:29;;;;;;;7.88;2.20;;;26.70;74.20;;;;;;5003480;28;20121;-66
2021/08/09 09:33:55;;;;;;;8.93;2.83;;;26.70;75.20;;;;;;5006927;28;20077;-66
2021/08/09 09:36:22;;;;;;;5.40;2.03;;;26.80;73.20;;;;;;5008916;28;20033;-66
2021/08/09 09:38:52;;;;;;;5.07;2.40;;;26.90;72.30;;;;;;5015404;28;20037;-66
2021/08/09 09:41:21;;;;;;;4.75;2.00;;;26.80;72.20;;;;;;5006281;28;20371;-66
2021/08/09 09:43:48;;;;;;;4.93;2.08;;;26.90;72.50;;;;;;5020266;28;20041;-65
2021/08/09 09:46:28;;;;;;;5.15;2.35;;;27.00;71.10;;;;;;5003428;28;20038;-66
2021/08/09 09:49:01;;;;;;;8.23;2.40;;;27.00;69.30;;;;;;5014903;28;20487;-65
2021/08/09 09:51:27;;;;;;;3.90;1.90;;;27.10;69.40;;;;;;5003985;28;20048;-66
2021/08/09 09:53:53;;;;;;;4.78;1.92;;;27.10;68.50;;;;;;5029807;28;20132;-66
2021/08/09 09:56:20;;;;;;;5.30;2.08;;;27.30;68.60;;;;;;5026690;28;20137;-66
2021/08/09 09:58:46;;;;;;;5.43;1.95;;;27.30;66.10;;;;;;5022939;28;20038;-65
2021/08/09 10:01:12;;;;;;;6.03;2.03;;;27.40;65.50;;;;;;5010569;28;20093;-65
2021/08/09 10:03:39;;;;;;;4.90;1.80;;;27.40;64.50;;;;;;5021311;28;20045;-66
2021/08/09 10:06:05;;;;;;;4.75;1.90;;;27.50;63.80;;;;;;5027382;28;20038;-66
2021/08/09 10:08:41;;;;;;;4.45;1.75;;;27.40;63.40;;;;;;5024923;28;20053;-66
2021/08/09 10:11:08;;;;;;;3.25;1.90;;;27.30;62.20;;;;;;5009004;28;20046;-66
2021/08/09 10:13:35;;;;;;;4.68;2.17;;;27.50;63.10;;;;;;5024984;28;20069;-66
2021/08/09 10:16:05;;;;;;;2.13;1.77;;;27.60;61.90;;;;;;5016322;28;20072;-66
2021/08/09 10:18:36;;;;;;;4.68;2.10;;;27.70;61.30;;;;;;5023272;28;20479;-66
2021/08/09 10:21:06;;;;;;;4.35;2.53;;;27.90;59.00;;;;;;5020995;28;20109;-66
2021/08/09 10:23:45;;;;;;;3.63;1.77;;;27.90;55.90;;;;;;4998445;28;20038;-66
2021/08/09 10:26:12;;;;;;;8.70;2.45;;;27.90;57.60;;;;;;5001158;28;20411;-66
2021/08/09 10:28:53;;;;;;;4.63;1.75;;;27.80;57.80;;;;;;5000748;28;20048;-66
2021/08/09 10:31:35;;;;;;;4.63;1.70;;;27.90;57.50;;;;;;5008478;28;20045;-66
2021/08/09 10:34:04;;;;;;;5.93;2.15;;;27.90;57.60;;;;;;5027187;28;20041;-66
2021/08/09 10:37:06;;;;;;;4.45;1.80;;;28.00;58.50;;;;;;5029536;28;20041;-66
2021/08/09 10:39:57;;;;;;;5.55;1.90;;;28.20;57.30;;;;;;4985338;28;20377;-66
2021/08/09 10:42:32;;;;;;;5.47;1.73;;;28.40;55.50;;;;;;4984253;28;20392;-66
2021/08/09 10:44:59;;;;;;;3.83;1.77;;;28.40;55.60;;;;;;5007756;28;20034;-66
2021/08/09 10:47:47;;;;;;;5.22;2.15;;;28.40;55.50;;;;;;5018249;28;20112;-67
2021/08/09 10:50:24;;;;;;;4.20;1.70;;;28.60;54.10;;;;;;4990788;28;20042;-66
2021/08/09 10:52:51;;;;;;;4.28;2.10;;;28.70;53.10;;;;;;5028925;28;20132;-66
2021/08/09 10:55:35;;;;;;;4.47;2.20;;;28.80;53.50;;;;;;4978289;28;1064433;-66
2021/08/09 10:58:04;;;;;;;5.63;2.07;;;29.10;51.10;;;;;;5014588;28;20899;-66
2021/08/09 11:01:00;;;;;;;6.78;2.35;;;29.20;51.50;;;;;;5013642;28;20046;-67
2021/08/09 11:03:25;;;;;;;6.68;2.20;;;29.30;50.10;;;;;;4987962;28;20487;-66
2021/08/09 11:05:51;;;;;;;3.65;2.55;;;29.20;51.70;;;;;;5003645;28;20052;-66
2021/08/09 11:08:17;;;;;;;2.95;1.83;;;29.20;51.10;;;;;;5013099;28;20045;-66
2021/08/09 11:10:55;;;;;;;5.05;2.20;;;29.40;50.50;;;;;;5008258;28;20038;-66
2021/08/09 11:13:28;;;;;;;4.13;1.75;;;29.40;48.50;;;;;;5014901;28;20133;-66
2021/08/09 11:16:00;;;;;;;7.97;1.85;;;29.50;49.90;;;;;;5011310;28;20089;-66
2021/08/09 11:18:29;;;;;;;4.80;2.17;;;29.60;49.30;;;;;;5025881;28;20029;-66
2021/08/09 11:21:07;;;;;;;5.00;1.60;;;29.80;49.30;;;;;;5019692;28;20049;-66
2021/08/09 11:23:45;;;;;;;3.08;2.15;;;30.00;49.00;;;;;;5032805;28;20042;-66
2021/08/09 11:26:25;;;;;;;3.40;1.92;;;30.10;45.10;;;;;;5019642;28;20034;-66
2021/08/09 11:29:06;;;;;;;5.40;2.03;;;30.20;45.90;;;;;;5034601;28;20041;-66
2021/08/09 11:31:48;;;;;;;3.35;1.90;;;30.50;44.70;;;;;;5017828;28;20499;-66
2021/08/09 11:34:14;;;;;;;6.50;3.05;;;30.90;44.00;;;;;;4956319;28;20034;-66
2021/08/09 11:36:41;;;;;;;3.85;2.22;;;31.50;43.40;;;;;;4997805;28;20546;-67
2021/08/09 11:39:08;;;;;;;3.63;2.00;;;31.80;42.30;;;;;;5005323;28;20113;-65
2021/08/09 11:41:34;;;;;;;5.15;1.75;;;32.20;45.00;;;;;;5000799;28;20038;-67
2021/08/09 11:44:19;;;;;;;1.95;1.80;;;32.40;40.10;;;;;;5023853;28;20048;-67
2021/08/09 11:46:47;;;;;;;5.65;2.03;;;32.30;39.50;;;;;;4983019;28;20491;-67
2021/08/09 11:49:13;;;;;;;3.65;2.20;;;32.80;39.20;;;;;;5025876;28;20132;-66
2021/08/09 11:51:38;;;;;;;3.72;2.55;;;33.20;38.30;;;;;;5018476;28;20116;-66
2021/08/09 11:54:04;;;;;;;5.13;2.47;;;;;;;;;;5027982;28;20045;-67
2021/08/09 11:56:31;;;;;;;2.72;2.22;;;34.80;34.10;;;;;;5020243;28;20033;-67
2021/08/09 11:58:58;;;;;;;4.93;2.80;;;36.10;33.00;;;;;;5027707;28;20045;-67
2021/08/09 12:01:30;;;;;;;3.72;2.35;;;35.00;32.40;;;;;;5024451;28;20106;-67
2021/08/09 12:04:22;;;;;;;5.05;2.22;;;34.30;31.10;;;;;;5027791;28;20033;-67
2021/08/09 12:06:49;;;;;;;4.68;1.92;;;33.90;32.40;;;;;;4997128;28;20041;-67
2021/08/09 12:09:17;;;;;;;5.15;2.65;;;34.20;33.10;;;;;;5028613;28;20068;-67
2021/08/09 12:11:54;;;;;;;4.43;2.00;;;34.10;31.80;;;;;;5023031;28;20738;-67
2021/08/09 12:14:23;;;;;;;4.43;2.03;;;34.00;32.80;;;;;;5027375;28;20040;-67
2021/08/09 12:16:51;;;;;;;4.57;2.05;;;34.40;32.50;;;;;;5027258;28;20132;-67
2021/08/09 12:19:20;;;;;;;3.88;2.30;;;34.70;31.20;;;;;;5022484;28;20042;-67
2021/08/09 12:21:47;;;;;;;3.35;2.17;;;34.60;30.90;;;;;;5022512;28;20033;-67
2021/08/09 12:24:22;;;;;;;2.67;2.05;;;35.10;31.00;;;;;;5023465;28;20128;-66
2021/08/09 12:26:52;;;;;;;2.72;2.20;;;35.20;29.60;;;;;;5024421;28;20072;-67
2021/08/09 12:29:21;;;;;;;3.78;2.15;;;35.60;29.50;;;;;;5013817;28;20050;-67
2021/08/09 12:31:47;;;;;;;4.35;2.65;;;35.40;28.90;;;;;;5016826;28;20099;-67
2021/08/09 12:34:22;;;;;;;4.40;2.22;;;36.20;29.00;;;;;;5021743;28;20053;-67
2021/08/09 12:36:49;;;;;;;4.13;2.25;;;36.30;27.80;;;;;;5005220;28;20029;-67
2021/08/09 12:39:35;;;;;;;3.78;2.30;;;37.40;27.70;;;;;;5002089;28;20499;-68
2021/08/09 12:42:19;;;;;;;3.97;2.25;;;37.50;26.70;;;;;;5015322;28;20041;-67
2021/08/09 12:44:45;;;;;;;;;;;37.20;26.20;;;;;;4978351;28;20144;-67
2021/08/09 12:47:11;;;;;;;3.67;2.30;;;37.00;26.50;;;;;;5019121;28;19921;-67
2021/08/09 12:49:37;;;;;;;6.25;2.80;;;37.60;26.90;;;;;;5004504;28;20052;-66
2021/08/09 12:52:03;;;;;;;4.82;2.50;;;38.40;25.30;;;;;;5015308;28;20045;-67
2021/08/09 12:54:30;;;;;;;4.68;2.10;;;39.40;25.50;;;;;;5000799;28;20492;-67
2021/08/09 12:56:56;;;;;;;2.58;2.35;;;39.20;25.30;;;;;;5004458;28;20038;-67
2021/08/09 12:59:22;;;;;;;2.50;2.30;;;38.80;25.10;;;;;;5012019;28;20052;-67
2021/08/09 13:01:47;;;;;;;4.10;3.00;;;39.00;24.60;;;;;;5015349;28;20049;-68